Time;durP1;ratioP1;P1;durP2;ratioP2;P2;SDS_P1;SDS_P2;PMS_P1;PMS_P2;Temp;Humidity;BMP_temperature;BMP_pressure;BME280_temperature;BME280_humidity;BME280_pressure;Samples;Min_cycle;Max_cycle;Signal;HPM_P1;HPM_P2
2020/12/18 00:01:28;;;;;;;0.60;0.20;;;21.90;45.30;;;;;;5071813;28;20108;-48
2020/12/18 00:03:55;;;;;;;0.68;0.20;;;21.90;44.80;;;;;;5091319;28;20023;-46
2020/12/18 00:06:22;;;;;;;0.60;0.20;;;21.90;44.80;;;;;;5088371;28;20035;-46
2020/12/18 00:08:48;;;;;;;0.95;0.20;;;21.90;44.80;;;;;;5090585;28;20105;-47
2020/12/18 00:11:24;;;;;;;0.60;0.20;;;21.90;44.70;;;;;;5091160;28;20028;-47
2020/12/18 00:13:51;;;;;;;0.95;0.20;;;21.90;44.80;;;;;;5085976;28;20497;-45
2020/12/18 00:16:18;;;;;;;0.95;0.20;;;21.90;44.80;;;;;;5090015;28;20032;-46
2020/12/18 00:18:43;;;;;;;0.77;0.40;;;21.90;44.80;;;;;;5090146;28;20110;-46
2020/12/18 00:21:09;;;;;;;0.55;0.20;;;21.90;44.80;;;;;;5072216;28;20106;-46
2020/12/18 00:23:35;;;;;;;0.40;0.20;;;21.80;44.70;;;;;;5083781;28;20020;-47
2020/12/18 00:26:00;;;;;;;1.08;0.20;;;21.80;44.70;;;;;;5073960;28;20111;-47
2020/12/18 00:28:26;;;;;;;0.68;0.30;;;21.80;44.70;;;;;;5094169;28;20032;-46
2020/12/18 00:30:52;;;;;;;0.90;0.20;;;21.80;44.70;;;;;;5095113;28;20103;-46
2020/12/18 00:33:17;;;;;;;0.65;0.20;;;21.80;44.70;;;;;;5076327;28;20086;-50
2020/12/18 00:35:43;;;;;;;0.82;0.30;;;21.80;44.80;;;;;;5094025;28;20027;-46
2020/12/18 00:38:08;;;;;;;0.50;0.20;;;21.70;44.70;;;;;;5093983;28;20039;-46
2020/12/18 00:40:34;;;;;;;0.57;0.30;;;21.70;44.80;;;;;;5093505;28;20031;-47
2020/12/18 00:43:00;;;;;;;0.70;0.30;;;21.70;44.70;;;;;;5094703;28;20103;-48
2020/12/18 00:45:25;;;;;;;0.52;0.20;;;21.70;44.70;;;;;;5093773;28;20024;-46
2020/12/18 00:47:51;;;;;;;0.50;0.17;;;21.70;44.70;;;;;;5083020;28;20020;-46
2020/12/18 00:50:17;;;;;;;0.63;0.20;;;21.70;44.70;;;;;;5089334;28;20031;-47
2020/12/18 00:52:42;;;;;;;0.77;0.20;;;21.70;44.70;;;;;;5090762;28;20031;-51
2020/12/18 00:55:08;;;;;;;0.50;0.20;;;21.70;44.70;;;;;;5094051;28;20050;-49
2020/12/18 00:57:33;;;;;;;0.85;0.20;;;21.60;44.70;;;;;;5084311;28;20039;-49
2020/12/18 00:59:59;;;;;;;1.83;0.17;;;21.70;44.70;;;;;;5074823;28;20035;-46
2020/12/18 01:02:24;;;;;;;1.35;0.20;;;21.60;44.70;;;;;;5091926;28;20024;-48
2020/12/18 01:04:52;;;;;;;0.50;0.30;;;21.60;44.70;;;;;;5091338;28;20017;-47
2020/12/18 01:07:17;;;;;;;1.15;0.40;;;21.60;44.60;;;;;;5094251;28;20239;-47
2020/12/18 01:09:43;;;;;;;0.40;0.20;;;21.60;44.60;;;;;;5094639;28;20037;-46
2020/12/18 01:12:12;;;;;;;0.60;0.20;;;21.60;44.70;;;;;;5076035;28;20032;-46
2020/12/18 01:14:38;;;;;;;1.08;0.20;;;21.60;44.70;;;;;;5093024;28;20445;-49
2020/12/18 01:17:03;;;;;;;0.75;0.20;;;21.60;44.70;;;;;;5093332;28;20081;-47
2020/12/18 01:19:29;;;;;;;0.93;0.20;;;21.60;44.70;;;;;;5093446;28;20400;-47
2020/12/18 01:21:54;;;;;;;2.75;0.30;;;21.60;44.70;;;;;;5088276;28;20016;-46
2020/12/18 01:24:20;;;;;;;0.52;0.20;;;21.60;44.70;;;;;;5093364;28;20099;-50
2020/12/18 01:26:47;;;;;;;0.98;0.30;;;21.50;44.70;;;;;;5075297;28;20038;-47
2020/12/18 01:29:13;;;;;;;0.80;0.20;;;21.50;44.70;;;;;;5093857;28;20027;-46
2020/12/18 01:31:38;;;;;;;0.77;0.20;;;21.50;44.70;;;;;;5093137;28;20038;-45
2020/12/18 01:34:04;;;;;;;0.85;0.20;;;21.50;44.60;;;;;;5093581;28;20492;-47
2020/12/18 01:36:29;;;;;;;0.47;0.20;;;21.50;44.70;;;;;;5089979;28;20035;-47
2020/12/18 01:38:56;;;;;;;0.65;0.20;;;21.50;44.70;;;;;;5087259;28;20078;-48
2020/12/18 01:41:21;;;;;;;0.77;0.15;;;21.50;44.70;;;;;;5087920;28;20028;-49
2020/12/18 01:43:47;;;;;;;0.43;0.20;;;21.50;44.70;;;;;;5069763;28;20046;-46
2020/12/18 01:46:14;;;;;;;0.25;0.10;;;21.40;44.70;;;;;;5088017;28;20024;-46
2020/12/18 01:48:44;;;;;;;0.90;0.30;;;21.40;44.70;;;;;;5076752;28;20536;-46
2020/12/18 01:51:12;;;;;;;0.40;0.20;;;21.40;44.70;;;;;;5088219;28;20040;-47
2020/12/18 01:53:39;;;;;;;1.40;0.20;;;21.40;44.70;;;;;;5088164;28;20028;-44
2020/12/18 01:56:06;;;;;;;0.47;0.17;;;21.40;44.70;;;;;;5088409;28;20028;-46
2020/12/18 01:58:35;;;;;;;0.57;0.25;;;21.40;44.70;;;;;;5087488;28;20170;-47
2020/12/18 02:01:05;;;;;;;0.73;0.30;;;21.40;44.70;;;;;;5087316;28;20086;-45
2020/12/18 02:03:31;;;;;;;0.70;0.20;;;21.40;44.70;;;;;;5087533;28;20027;-49
2020/12/18 02:06:01;;;;;;;0.95;0.20;;;21.30;44.70;;;;;;5084306;28;20020;-46
2020/12/18 02:08:29;;;;;;;0.47;0.20;;;21.30;44.70;;;;;;5087721;28;20051;-48
2020/12/18 02:10:59;;;;;;;0.65;0.17;;;21.30;44.70;;;;;;5086767;28;20036;-46
2020/12/18 02:13:25;;;;;;;0.50;0.20;;;21.30;44.70;;;;;;5085883;28;20032;-46
2020/12/18 02:15:54;;;;;;;0.73;0.10;;;21.30;44.60;;;;;;5086894;28;20068;-44
2020/12/18 02:18:22;;;;;;;0.55;0.20;;;21.30;44.60;;;;;;5068513;28;20032;-46
2020/12/18 02:20:48;;;;;;;0.65;0.20;;;21.30;44.70;;;;;;5087320;28;20032;-46
2020/12/18 02:23:14;;;;;;;0.50;0.10;;;21.30;44.60;;;;;;5088060;28;20053;-48
2020/12/18 02:25:41;;;;;;;1.02;0.20;;;21.30;44.60;;;;;;5084608;28;20020;-45
2020/12/18 02:28:11;;;;;;;0.43;0.20;;;21.30;44.60;;;;;;5087429;28;20557;-48
2020/12/18 02:30:38;;;;;;;1.02;0.30;;;21.30;44.70;;;;;;5087694;28;20028;-46
2020/12/18 02:33:07;;;;;;;0.90;0.35;;;21.30;44.60;;;;;;5087698;28;20032;-46
2020/12/18 02:35:36;;;;;;;0.30;0.10;;;21.20;44.60;;;;;;5088146;28;20089;-46
2020/12/18 02:38:03;;;;;;;0.40;0.17;;;21.20;44.60;;;;;;5085212;28;20032;-47
2020/12/18 02:40:28;;;;;;;0.30;0.15;;;21.20;44.60;;;;;;5088035;28;20012;-46
2020/12/18 02:42:54;;;;;;;0.65;0.20;;;21.20;44.60;;;;;;5087306;28;20070;-45
2020/12/18 02:45:19;;;;;;;0.43;0.13;;;21.20;44.60;;;;;;5088483;28;20393;-47
2020/12/18 02:47:46;;;;;;;0.80;0.20;;;21.20;44.60;;;;;;5085537;28;20489;-48
2020/12/18 02:50:12;;;;;;;0.70;0.20;;;21.30;44.50;;;;;;5087195;28;20098;-47
2020/12/18 02:52:38;;;;;;;0.40;0.20;;;21.30;44.50;;;;;;5087232;28;20608;-46
2020/12/18 02:55:04;;;;;;;0.35;0.10;;;21.20;44.50;;;;;;5088183;28;20032;-44
2020/12/18 02:57:29;;;;;;;0.70;0.10;;;21.20;44.50;;;;;;5086926;28;20039;-47
2020/12/18 02:59:55;;;;;;;0.70;0.20;;;21.20;44.60;;;;;;5087915;28;20035;-45
2020/12/18 03:02:21;;;;;;;0.52;0.10;;;21.20;44.60;;;;;;5091599;28;20024;-46
2020/12/18 03:04:46;;;;;;;0.90;0.10;;;21.20;44.60;;;;;;5090294;28;20028;-49
2020/12/18 03:07:13;;;;;;;0.70;0.15;;;21.20;44.60;;;;;;5091209;28;20028;-46
2020/12/18 03:09:39;;;;;;;0.50;0.10;;;21.20;44.60;;;;;;5090615;28;20055;-47
2020/12/18 03:12:06;;;;;;;0.70;0.13;;;21.20;44.60;;;;;;5091372;28;20400;-47
2020/12/18 03:14:31;;;;;;;1.17;0.20;;;21.20;44.60;;;;;;5090312;28;20061;-46
2020/12/18 03:16:57;;;;;;;0.50;0.20;;;21.20;44.60;;;;;;5090333;28;20032;-47
2020/12/18 03:19:22;;;;;;;0.70;0.10;;;21.10;44.60;;;;;;5090642;28;20036;-46
2020/12/18 03:21:48;;;;;;;0.50;0.10;;;21.10;44.50;;;;;;5090976;28;20032;-46
2020/12/18 03:24:13;;;;;;;0.75;0.10;;;21.10;44.50;;;;;;5092045;28;20099;-47
2020/12/18 03:26:39;;;;;;;0.30;0.10;;;21.10;44.60;;;;;;5090549;28;20024;-50
2020/12/18 03:29:05;;;;;;;1.05;0.30;;;21.10;44.60;;;;;;5087787;28;20491;-46
2020/12/18 03:31:30;;;;;;;1.45;0.20;;;21.10;44.60;;;;;;5091209;28;20062;-46
2020/12/18 03:33:56;;;;;;;0.73;0.13;;;21.10;44.60;;;;;;5091194;28;20077;-45
2020/12/18 03:36:21;;;;;;;0.75;0.17;;;21.10;44.60;;;;;;5091318;28;20070;-46
2020/12/18 03:38:47;;;;;;;1.05;0.10;;;21.10;44.50;;;;;;5086407;28;20059;-46
2020/12/18 03:41:12;;;;;;;0.32;0.10;;;21.10;44.60;;;;;;5091394;28;20476;-49
2020/12/18 03:43:38;;;;;;;0.40;0.10;;;21.00;44.60;;;;;;5090143;28;20647;-49
2020/12/18 03:46:03;;;;;;;0.40;0.10;;;21.00;44.60;;;;;;5090205;28;20091;-47
2020/12/18 03:48:29;;;;;;;0.60;0.10;;;21.00;44.60;;;;;;5071580;28;20035;-48
2020/12/18 03:50:54;;;;;;;1.02;0.20;;;21.00;44.70;;;;;;5089909;28;20028;-46
2020/12/18 03:53:20;;;;;;;0.47;0.10;;;21.00;44.70;;;;;;5090488;28;20036;-46
2020/12/18 03:55:45;;;;;;;0.40;0.10;;;21.00;44.60;;;;;;5089932;28;20138;-47
2020/12/18 03:58:11;;;;;;;0.45;0.13;;;21.00;44.70;;;;;;5090071;28;20039;-45
2020/12/18 04:00:38;;;;;;;0.55;0.10;;;21.00;44.70;;;;;;5080824;28;20129;-47
2020/12/18 04:03:03;;;;;;;0.65;0.10;;;20.90;44.60;;;;;;5090520;28;20039;-46
2020/12/18 04:05:29;;;;;;;0.25;0.10;;;20.90;44.60;;;;;;5089180;28;20032;-46
2020/12/18 04:07:55;;;;;;;0.38;0.10;;;20.90;44.70;;;;;;5089023;28;20047;-47
2020/12/18 04:10:21;;;;;;;0.85;0.10;;;20.90;44.70;;;;;;5089403;28;20024;-47
2020/12/18 04:12:47;;;;;;;0.30;0.10;;;20.90;44.70;;;;;;5089722;28;20027;-47
2020/12/18 04:15:12;;;;;;;0.70;0.20;;;20.90;44.60;;;;;;5088903;28;20028;-47
2020/12/18 04:17:38;;;;;;;0.25;0.10;;;20.90;44.60;;;;;;5070458;28;20434;-47
2020/12/18 04:20:04;;;;;;;0.57;0.20;;;20.90;44.60;;;;;;5086939;28;20032;-46
2020/12/18 04:22:29;;;;;;;0.30;0.10;;;20.90;44.60;;;;;;5089443;28;20127;-46
2020/12/18 04:24:55;;;;;;;0.70;0.10;;;20.90;44.60;;;;;;5089286;28;20765;-46
2020/12/18 04:27:21;;;;;;;0.47;0.20;;;20.90;44.60;;;;;;5081368;28;20020;-46
2020/12/18 04:29:46;;;;;;;0.40;0.10;;;20.90;44.60;;;;;;5089800;28;20027;-47
2020/12/18 04:32:12;;;;;;;0.40;0.17;;;20.90;44.60;;;;;;5089668;28;20035;-47
2020/12/18 04:34:38;;;;;;;0.60;0.10;;;20.90;44.70;;;;;;5089680;28;20020;-49
2020/12/18 04:37:03;;;;;;;0.22;0.10;;;20.90;44.70;;;;;;5088992;28;20052;-46
2020/12/18 04:39:29;;;;;;;0.77;0.13;;;20.80;44.60;;;;;;5089616;28;20032;-47
2020/12/18 04:41:55;;;;;;;0.45;0.10;;;20.80;44.60;;;;;;5088808;28;20130;-46
2020/12/18 04:44:22;;;;;;;0.40;0.10;;;20.80;44.60;;;;;;5071002;28;20017;-47
2020/12/18 04:46:50;;;;;;;0.55;0.10;;;20.80;44.60;;;;;;5089012;28;20054;-47
2020/12/18 04:49:17;;;;;;;0.28;0.10;;;20.80;44.60;;;;;;5084635;28;20044;-48
2020/12/18 04:51:43;;;;;;;0.47;0.10;;;20.80;45.20;;;;;;5089609;28;20020;-47
2020/12/18 04:54:12;;;;;;;0.38;0.10;;;20.80;44.70;;;;;;5088158;28;20062;-50
2020/12/18 04:56:38;;;;;;;0.90;0.10;;;20.80;44.60;;;;;;5088186;28;20512;-47
2020/12/18 04:59:06;;;;;;;0.40;0.10;;;20.80;44.60;;;;;;5089071;28;20032;-49
2020/12/18 05:01:31;;;;;;;0.57;0.10;;;20.80;44.60;;;;;;5089395;28;20166;-48
2020/12/18 05:03:58;;;;;;;0.65;0.13;;;20.80;44.60;;;;;;5088760;28;20119;-46
2020/12/18 05:06:23;;;;;;;0.47;0.10;;;20.80;44.60;;;;;;5088305;28;20050;-48
2020/12/18 05:08:49;;;;;;;0.20;0.00;;;20.80;44.60;;;;;;5088717;28;20024;-46
2020/12/18 05:11:26;;;;;;;0.40;0.10;;;20.70;44.60;;;;;;5088884;28;20028;-48
2020/12/18 05:13:53;;;;;;;0.10;0.00;;;20.70;44.60;;;;;;5088645;28;20028;-46
2020/12/18 05:16:23;;;;;;;0.40;0.10;;;20.70;44.60;;;;;;5086734;28;20051;-48
2020/12/18 05:18:49;;;;;;;1.02;0.10;;;20.70;44.70;;;;;;5086393;28;20393;-49
2020/12/18 05:21:16;;;;;;;0.25;0.10;;;20.70;44.70;;;;;;5089098;28;20020;-47
2020/12/18 05:23:43;;;;;;;0.57;0.10;;;20.70;44.70;;;;;;5086841;28;20024;-47
2020/12/18 05:26:10;;;;;;;0.38;0.10;;;20.70;44.70;;;;;;5088303;28;20380;-46
2020/12/18 05:28:49;;;;;;;0.73;0.10;;;20.70;44.70;;;;;;5088032;28;20036;-47
2020/12/18 05:31:19;;;;;;;0.40;0.20;;;20.70;44.70;;;;;;5089062;28;20102;-46
2020/12/18 05:33:46;;;;;;;0.93;0.10;;;20.70;44.70;;;;;;5087436;28;20589;-45
2020/12/18 05:36:13;;;;;;;0.70;0.10;;;20.70;44.70;;;;;;5087969;28;20048;-47
2020/12/18 05:38:39;;;;;;;0.40;0.10;;;20.70;44.70;;;;;;5087848;28;20028;-48
2020/12/18 05:41:06;;;;;;;0.75;0.00;;;20.60;44.60;;;;;;5087725;28;20035;-46
2020/12/18 05:43:42;;;;;;;0.22;0.00;;;20.70;44.60;;;;;;5088797;28;20036;-47
2020/12/18 05:46:37;;;;;;;0.40;0.10;;;20.70;44.70;;;;;;5078964;28;20024;-46
2020/12/18 05:49:05;;;;;;;0.40;0.17;;;20.70;44.60;;;;;;5085412;28;20181;-47
2020/12/18 05:51:32;;;;;;;0.38;0.10;;;20.60;44.50;;;;;;5087837;28;20036;-47
2020/12/18 05:54:18;;;;;;;0.20;0.10;;;20.60;44.60;;;;;;5081981;28;20049;-46
2020/12/18 05:56:45;;;;;;;0.70;0.10;;;20.60;44.50;;;;;;5086923;28;20485;-47
2020/12/18 05:59:14;;;;;;;0.63;0.10;;;20.60;44.60;;;;;;5070506;28;20622;-47
2020/12/18 06:01:40;;;;;;;0.55;0.10;;;20.60;44.60;;;;;;5087139;28;20026;-48
2020/12/18 06:04:16;;;;;;;0.40;0.10;;;20.60;44.70;;;;;;5052687;28;20031;-46
2020/12/18 06:06:50;;;;;;;0.60;0.10;;;20.60;44.60;;;;;;5084940;28;20029;-47
2020/12/18 06:09:18;;;;;;;0.52;0.10;;;20.60;44.60;;;;;;5086124;28;20031;-45
2020/12/18 06:11:43;;;;;;;0.55;0.10;;;20.60;44.60;;;;;;5079773;28;20028;-46
2020/12/18 06:14:11;;;;;;;0.82;0.20;;;20.60;44.70;;;;;;5087934;28;20035;-46
2020/12/18 06:16:43;;;;;;;0.85;0.20;;;20.60;44.70;;;;;;5087905;28;20088;-46
2020/12/18 06:19:10;;;;;;;0.57;0.10;;;20.50;44.70;;;;;;5053052;28;20031;-47
2020/12/18 06:21:36;;;;;;;0.95;0.20;;;20.50;44.70;;;;;;5088834;28;20400;-46
2020/12/18 06:24:03;;;;;;;0.40;0.10;;;20.50;44.70;;;;;;5084821;28;20100;-46
2020/12/18 06:26:30;;;;;;;0.85;0.20;;;20.50;44.60;;;;;;5087407;28;20024;-47
2020/12/18 06:29:04;;;;;;;0.50;0.17;;;20.50;44.60;;;;;;5068873;28;20027;-48
2020/12/18 06:31:31;;;;;;;0.65;0.15;;;20.50;44.60;;;;;;5088285;28;20035;-46
2020/12/18 06:33:59;;;;;;;0.77;0.20;;;20.50;44.60;;;;;;5069445;28;20163;-46
2020/12/18 06:36:43;;;;;;;0.63;0.10;;;20.60;44.70;;;;;;5072385;28;20024;-45
2020/12/18 06:39:22;;;;;;;0.45;0.10;;;20.60;44.40;;;;;;5087488;28;20021;-47
2020/12/18 06:41:47;;;;;;;0.60;0.10;;;20.70;44.30;;;;;;5090778;28;20042;-47
2020/12/18 06:44:33;;;;;;;0.15;0.05;;;20.80;44.10;;;;;;5092549;28;20024;-45
2020/12/18 06:47:09;;;;;;;0.70;0.10;;;21.00;43.90;;;;;;5090865;28;20032;-45
2020/12/18 06:49:56;;;;;;;0.35;0.10;;;21.10;43.70;;;;;;5091723;28;20103;-48
2020/12/18 06:52:46;;;;;;;0.40;0.10;;;21.20;43.50;;;;;;5090514;28;20039;-47
2020/12/18 06:55:28;;;;;;;0.50;0.10;;;21.30;43.30;;;;;;5082361;28;20036;-47
2020/12/18 06:58:06;;;;;;;0.40;0.20;;;21.30;43.20;;;;;;5090997;28;20032;-47
2020/12/18 07:00:37;;;;;;;0.70;0.10;;;21.40;43.10;;;;;;5091340;28;20388;-48
2020/12/18 07:03:03;;;;;;;0.40;0.10;;;21.50;43.10;;;;;;5070668;28;20141;-46
2020/12/18 07:05:29;;;;;;;0.57;0.20;;;21.50;43.00;;;;;;5089667;28;20104;-45
2020/12/18 07:07:58;;;;;;;0.70;0.20;;;21.50;42.90;;;;;;5090987;28;20484;-46
2020/12/18 07:10:28;;;;;;;0.75;0.20;;;21.60;42.90;;;;;;5091291;28;20051;-46
2020/12/18 07:12:57;;;;;;;0.63;0.20;;;21.60;42.90;;;;;;5072832;28;20032;-47
2020/12/18 07:15:26;;;;;;;0.25;0.10;;;21.60;42.90;;;;;;5090162;28;20488;-46
2020/12/18 07:17:55;;;;;;;0.50;0.13;;;21.60;42.90;;;;;;5090751;28;20036;-47
2020/12/18 07:20:24;;;;;;;0.75;0.20;;;21.60;42.90;;;;;;5090744;28;20036;-46
2020/12/18 07:22:50;;;;;;;0.35;0.10;;;21.60;42.90;;;;;;5090806;28;20020;-48
2020/12/18 07:25:16;;;;;;;0.57;0.10;;;21.60;42.90;;;;;;5089835;28;20058;-47
2020/12/18 07:27:41;;;;;;;0.65;0.20;;;21.50;43.00;;;;;;5073176;28;20512;-47
2020/12/18 07:30:11;;;;;;;0.47;0.10;;;21.60;43.10;;;;;;5090214;28;20036;-47
2020/12/18 07:32:37;;;;;;;0.45;0.10;;;21.60;43.10;;;;;;5091286;28;20032;-47
2020/12/18 07:35:07;;;;;;;0.60;0.10;;;21.60;43.10;;;;;;5089428;28;20148;-45
2020/12/18 07:37:37;;;;;;;0.57;0.10;;;21.60;43.10;;;;;;5089696;28;20087;-46
2020/12/18 07:40:05;;;;;;;0.47;0.20;;;21.60;43.10;;;;;;5090539;28;20552;-45
2020/12/18 07:42:32;;;;;;;0.70;0.10;;;21.60;43.10;;;;;;5090211;28;20068;-46
2020/12/18 07:45:06;;;;;;;0.65;0.30;;;21.60;43.10;;;;;;5083512;28;20024;-46
2020/12/18 07:47:37;;;;;;;2.08;0.10;;;21.50;43.10;;;;;;5088660;28;20032;-49
2020/12/18 07:50:08;;;;;;;1.35;0.20;;;21.50;43.20;;;;;;5084663;28;20036;-45
2020/12/18 07:52:36;;;;;;;0.80;0.13;;;21.50;43.20;;;;;;5088893;28;20061;-45
2020/12/18 07:55:04;;;;;;;0.55;0.10;;;21.50;43.30;;;;;;5089942;28;20028;-48
2020/12/18 07:57:30;;;;;;;0.65;0.10;;;21.40;43.30;;;;;;5089721;28;20058;-46
2020/12/18 08:00:11;;;;;;;0.47;0.10;;;21.40;43.40;;;;;;5088663;28;20062;-47
2020/12/18 08:02:39;;;;;;;0.80;0.13;;;21.40;43.40;;;;;;5089630;28;20020;-47
2020/12/18 08:05:04;;;;;;;0.82;0.20;;;21.40;43.40;;;;;;5090067;28;20027;-46
2020/12/18 08:07:30;;;;;;;0.70;0.22;;;21.30;43.50;;;;;;5090459;28;20028;-48
2020/12/18 08:10:03;;;;;;;0.70;0.10;;;21.30;43.50;;;;;;5089475;28;20032;-48
2020/12/18 08:12:30;;;;;;;0.70;0.20;;;21.30;43.60;;;;;;5089725;28;20028;-45
2020/12/18 08:15:08;;;;;;;0.65;0.10;;;21.30;43.60;;;;;;5089065;28;20051;-48
2020/12/18 08:17:34;;;;;;;2.22;0.45;;;21.20;43.60;;;;;;5090386;28;20035;-47
2020/12/18 08:20:05;;;;;;;0.88;0.20;;;21.20;43.60;;;;;;5086023;28;20520;-47
2020/12/18 08:22:35;;;;;;;0.63;0.13;;;21.20;43.60;;;;;;5072005;28;20032;-48
2020/12/18 08:25:02;;;;;;;0.80;0.20;;;21.20;43.70;;;;;;5084552;28;20519;-45
2020/12/18 08:27:33;;;;;;;1.35;0.20;;;21.30;43.50;;;;;;5089351;28;20036;-50
2020/12/18 08:30:00;;;;;;;0.90;0.30;;;21.30;43.40;;;;;;5088287;28;20408;-52
2020/12/18 08:32:31;;;;;;;1.67;0.20;;;21.30;43.50;;;;;;5071480;28;20035;-50
2020/12/18 08:35:03;;;;;;;1.23;0.20;;;21.20;43.60;;;;;;5086385;28;20496;-50
2020/12/18 08:37:29;;;;;;;1.08;0.40;;;21.20;43.70;;;;;;5088195;28;20047;-51
2020/12/18 08:39:55;;;;;;;3.00;0.30;;;21.20;43.70;;;;;;5086840;28;20038;-51
2020/12/18 08:42:20;;;;;;;1.30;0.20;;;21.20;43.70;;;;;;5088698;28;20084;-50
2020/12/18 08:44:46;;;;;;;0.63;0.20;;;21.10;43.70;;;;;;5089363;28;20103;-52
2020/12/18 08:47:23;;;;;;;1.15;0.20;;;21.20;43.70;;;;;;5053380;28;20404;-53
2020/12/18 08:49:50;;;;;;;1.27;0.28;;;21.20;43.70;;;;;;5088748;28;20028;-49
2020/12/18 08:52:26;;;;;;;0.98;0.40;;;21.20;43.70;;;;;;5089803;28;20103;-51
2020/12/18 08:55:06;;;;;;;0.85;0.45;;;21.20;43.70;;;;;;5070109;28;20580;-52
2020/12/18 08:57:34;;;;;;;1.50;0.47;;;21.20;43.70;;;;;;5087835;28;20130;-52
2020/12/18 09:00:01;;;;;;;1.13;0.60;;;21.20;43.70;;;;;;5087048;28;20060;-51
2020/12/18 09:02:31;;;;;;;1.10;0.50;;;21.20;43.70;;;;;;5073816;28;20111;-48
2020/12/18 09:05:08;;;;;;;3.38;0.32;;;21.20;43.80;;;;;;5086919;28;20113;-51
2020/12/18 09:07:38;;;;;;;1.27;0.43;;;21.20;43.70;;;;;;5084920;28;20055;-51
2020/12/18 09:10:03;;;;;;;4.88;0.25;;;21.20;43.70;;;;;;5088530;28;20040;-47
2020/12/18 09:12:29;;;;;;;0.82;0.30;;;21.30;43.70;;;;;;5090270;28;20472;-50
2020/12/18 09:14:55;;;;;;;1.05;0.30;;;21.40;43.80;;;;;;5089270;28;20403;-47
2020/12/18 09:17:20;;;;;;;2.35;0.30;;;21.30;43.70;;;;;;5088350;28;20062;-45
2020/12/18 09:19:46;;;;;;;1.67;0.55;;;21.30;43.80;;;;;;5088244;28;20047;-43
2020/12/18 09:22:14;;;;;;;0.80;0.30;;;21.40;43.80;;;;;;5086842;28;20389;-45
2020/12/18 09:24:40;;;;;;;0.82;0.20;;;21.60;43.70;;;;;;5083973;28;20074;-48
2020/12/18 09:27:10;;;;;;;1.10;0.30;;;21.70;43.60;;;;;;5089208;28;20111;-50
2020/12/18 09:29:37;;;;;;;2.05;0.30;;;21.90;43.30;;;;;;5084875;28;20057;-49
2020/12/18 09:32:06;;;;;;;0.47;0.20;;;22.00;43.20;;;;;;5084771;28;20394;-49
2020/12/18 09:34:32;;;;;;;1.08;0.40;;;22.10;43.00;;;;;;5085866;28;20040;-44
2020/12/18 09:37:18;;;;;;;1.15;0.55;;;22.10;43.00;;;;;;5084236;28;20077;-47
2020/12/18 09:39:44;;;;;;;1.75;0.82;;;22.20;43.00;;;;;;5048423;28;20044;-45
2020/12/18 09:42:09;;;;;;;1.13;0.40;;;22.30;42.90;;;;;;5050165;28;20024;-47
2020/12/18 09:44:35;;;;;;;1.38;0.40;;;22.30;42.90;;;;;;5086904;28;20435;-48
2020/12/18 09:47:00;;;;;;;1.35;0.47;;;22.40;42.90;;;;;;5083209;28;20709;-45
2020/12/18 09:49:26;;;;;;;1.73;0.40;;;22.40;42.90;;;;;;5082501;28;20427;-47
2020/12/18 09:51:51;;;;;;;0.93;0.35;;;22.40;43.00;;;;;;5084819;28;20036;-45
2020/12/18 09:54:17;;;;;;;3.47;0.40;;;22.40;43.00;;;;;;5089455;28;20028;-49
2020/12/18 09:56:42;;;;;;;1.60;0.43;;;22.50;42.70;;;;;;5087748;28;20028;-48
2020/12/18 09:59:08;;;;;;;1.00;0.40;;;22.70;42.80;;;;;;5087324;28;20028;-45
2020/12/18 10:01:34;;;;;;;1.23;0.40;;;22.70;42.90;;;;;;5076114;28;20024;-49
2020/12/18 10:03:59;;;;;;;1.90;0.60;;;22.60;42.90;;;;;;5071294;28;20055;-50
2020/12/18 10:06:26;;;;;;;0.85;0.50;;;22.60;43.10;;;;;;5087758;28;20020;-50
2020/12/18 10:08:51;;;;;;;1.65;0.40;;;22.60;43.20;;;;;;5086453;28;20028;-49
2020/12/18 10:11:17;;;;;;;0.98;0.47;;;22.60;43.30;;;;;;5088038;28;20043;-50
2020/12/18 10:13:43;;;;;;;2.55;0.90;;;22.60;43.30;;;;;;5092472;28;20020;-50
2020/12/18 10:16:09;;;;;;;2.70;1.02;;;22.50;43.40;;;;;;5087900;28;20028;-48
2020/12/18 10:18:35;;;;;;;1.23;0.40;;;22.50;43.60;;;;;;5088264;28;20048;-49
2020/12/18 10:21:03;;;;;;;2.00;0.50;;;22.40;43.50;;;;;;5087402;28;20099;-49
2020/12/18 10:23:29;;;;;;;1.48;0.60;;;22.50;43.70;;;;;;5088057;28;20074;-49
2020/12/18 10:25:56;;;;;;;1.10;0.45;;;22.50;43.70;;;;;;5088497;28;20516;-50
2020/12/18 10:28:24;;;;;;;1.05;0.50;;;22.50;43.70;;;;;;5095539;28;20044;-49
2020/12/18 10:30:50;;;;;;;3.13;0.88;;;22.50;43.70;;;;;;5088806;28;20414;-47
2020/12/18 10:33:16;;;;;;;1.30;0.50;;;22.50;43.80;;;;;;5083610;28;20027;-46
2020/12/18 10:35:41;;;;;;;3.28;0.70;;;22.50;43.90;;;;;;5084041;28;20021;-44
2020/12/18 10:38:07;;;;;;;2.58;0.60;;;22.40;44.00;;;;;;5085412;28;20111;-45
2020/12/18 10:40:33;;;;;;;1.70;0.60;;;22.40;44.30;;;;;;5086985;28;20039;-51
2020/12/18 10:42:59;;;;;;;1.63;0.40;;;22.50;44.30;;;;;;5078878;28;20060;-50
2020/12/18 10:45:24;;;;;;;1.83;0.43;;;22.50;44.30;;;;;;5084309;28;20312;-47
2020/12/18 10:47:50;;;;;;;2.95;0.47;;;22.50;44.40;;;;;;5089383;28;20111;-45
2020/12/18 10:50:16;;;;;;;2.03;0.63;;;22.50;44.60;;;;;;5098333;22;20044;-46
2020/12/18 10:52:42;;;;;;;1.00;0.50;;;22.50;44.40;;;;;;5089313;28;20187;-50
2020/12/18 10:55:08;;;;;;;1.50;0.40;;;22.50;44.50;;;;;;5091147;28;20607;-49
2020/12/18 10:57:33;;;;;;;1.80;0.60;;;22.40;44.60;;;;;;5089998;28;20464;-50
2020/12/18 10:59:59;;;;;;;1.58;0.60;;;22.40;44.60;;;;;;5082786;28;20408;-48
2020/12/18 11:02:24;;;;;;;1.75;0.52;;;22.40;44.70;;;;;;5067510;28;20060;-49
2020/12/18 11:04:50;;;;;;;1.98;0.60;;;22.40;44.70;;;;;;5066368;28;20037;-48
2020/12/18 11:07:16;;;;;;;2.05;0.47;;;22.40;44.70;;;;;;5066593;28;20028;-51
2020/12/18 11:09:41;;;;;;;1.40;0.63;;;22.40;44.60;;;;;;5048050;28;20021;-49
2020/12/18 11:12:07;;;;;;;1.42;0.45;;;22.40;44.70;;;;;;5068669;28;20413;-47
2020/12/18 11:14:32;;;;;;;0.90;0.30;;;22.40;44.70;;;;;;5069772;28;20033;-47
2020/12/18 11:16:58;;;;;;;1.30;0.40;;;22.40;44.80;;;;;;5066545;28;20025;-51
2020/12/18 11:19:24;;;;;;;1.05;0.30;;;22.40;44.70;;;;;;5067449;28;20020;-49
2020/12/18 11:21:50;;;;;;;2.15;0.57;;;22.40;44.80;;;;;;5073533;28;20036;-48
2020/12/18 11:24:16;;;;;;;1.83;0.40;;;22.40;44.80;;;;;;5073076;28;20021;-50
2020/12/18 11:26:42;;;;;;;2.33;0.68;;;22.40;44.80;;;;;;5068802;28;20090;-49
2020/12/18 11:29:08;;;;;;;3.28;0.30;;;22.40;44.90;;;;;;5069224;28;20036;-49
2020/12/18 11:31:40;;;;;;;1.67;0.50;;;22.40;44.80;;;;;;5068704;28;20124;-46
2020/12/18 11:34:06;;;;;;;1.90;0.35;;;22.40;45.20;;;;;;5071781;28;20050;-46
2020/12/18 11:36:36;;;;;;;1.40;0.47;;;22.40;44.90;;;;;;5071670;28;20455;-48
2020/12/18 11:39:04;;;;;;;1.02;0.35;;;22.30;45.00;;;;;;5071083;28;20056;-42
2020/12/18 11:41:29;;;;;;;3.13;0.40;;;22.30;45.00;;;;;;5070449;28;20032;-47
2020/12/18 11:43:55;;;;;;;2.42;0.38;;;22.30;45.10;;;;;;5072432;28;20034;-46
2020/12/18 11:46:20;;;;;;;2.33;0.65;;;22.30;45.20;;;;;;5067716;28;20029;-45
2020/12/18 11:48:46;;;;;;;0.95;0.30;;;22.30;45.10;;;;;;5069853;28;20033;-50
2020/12/18 11:51:13;;;;;;;1.95;0.43;;;22.30;45.20;;;;;;5068894;28;20031;-46
2020/12/18 11:53:38;;;;;;;4.82;0.38;;;22.30;45.10;;;;;;5068599;28;20569;-45
2020/12/18 11:56:04;;;;;;;0.65;0.30;;;22.30;45.50;;;;;;5066212;28;20128;-45
2020/12/18 11:58:30;;;;;;;3.60;0.30;;;22.40;45.00;;;;;;5067355;28;20036;-45
2020/12/18 12:00:56;;;;;;;1.35;0.40;;;22.40;45.00;;;;;;5066611;28;20489;-46
2020/12/18 12:03:25;;;;;;;2.00;0.30;;;22.40;44.90;;;;;;5068749;28;20032;-46
2020/12/18 12:05:52;;;;;;;1.20;0.40;;;22.40;45.10;;;;;;5070145;28;20032;-44
2020/12/18 12:08:18;;;;;;;1.65;0.30;;;22.40;45.00;;;;;;5064337;28;20092;-45
2020/12/18 12:10:43;;;;;;;0.93;0.30;;;22.50;44.90;;;;;;5053267;28;20131;-42
2020/12/18 12:13:09;;;;;;;0.93;0.30;;;22.50;45.00;;;;;;5068578;28;20492;-42
2020/12/18 12:15:34;;;;;;;1.15;0.43;;;22.50;44.90;;;;;;5066019;28;20552;-44
2020/12/18 12:18:02;;;;;;;1.40;0.38;;;22.50;45.00;;;;;;5066465;28;20020;-46
2020/12/18 12:20:28;;;;;;;1.90;0.30;;;22.50;45.00;;;;;;5073197;28;20021;-46
2020/12/18 12:22:53;;;;;;;1.55;0.40;;;22.50;45.10;;;;;;5071441;28;20024;-44
2020/12/18 12:25:19;;;;;;;1.58;0.30;;;22.50;45.10;;;;;;5069909;28;20025;-47
2020/12/18 12:27:44;;;;;;;1.33;0.47;;;22.50;44.90;;;;;;5053328;28;20040;-47
2020/12/18 12:30:11;;;;;;;2.00;0.30;;;22.50;44.90;;;;;;5070220;28;20032;-46
2020/12/18 12:32:37;;;;;;;1.70;0.30;;;22.60;44.80;;;;;;5065663;28;20036;-44
2020/12/18 12:35:03;;;;;;;0.95;0.25;;;22.50;44.90;;;;;;5069912;28;20040;-45
2020/12/18 12:37:29;;;;;;;1.00;0.40;;;22.50;45.00;;;;;;5071266;28;20039;-46
2020/12/18 12:39:54;;;;;;;1.40;0.50;;;22.50;45.20;;;;;;5069776;28;20652;-46
2020/12/18 12:42:20;;;;;;;1.33;0.45;;;22.50;45.20;;;;;;5068445;28;20485;-43
2020/12/18 12:44:45;;;;;;;2.45;0.40;;;22.50;45.10;;;;;;5062743;28;20688;-47
2020/12/18 12:47:11;;;;;;;1.23;0.43;;;22.40;45.20;;;;;;5067367;28;20024;-46
2020/12/18 12:49:36;;;;;;;1.05;0.20;;;22.40;45.20;;;;;;5069736;28;20032;-43